CYZG

Details ICAO CYZG (YZG)
Name Salluit
Region Canada
Timezone America/Montreal (UTC-5.0)
Plans Departing 11
Arriving 14
Stats Elevation 705 ft / 215 m (AMSL)
Location 62.179178° -75.667313°
Runways 1
Magnetic Variation 22.963° W
Sunrise 2017-12-16 14:26:05 UTC / 2017-12-16 09:26:05 Local
Sunset 2017-12-16 19:33:30 UTC / 2017-12-16 14:33:30 Local
Advertisement - Login to hide

Runways

ID Width Length Bearing (true) Bearing (mag) Surface Threshold Offset Overrun Length
1 115 ft / 35 m 3,939 ft / 1,201 m 187.01° 209.97° Gravel 0 ft / 0 m 0 ft / 0 m
19 115 ft / 35 m 3,939 ft / 1,201 m 7.01° 29.97° Gravel 0 ft / 0 m 0 ft / 0 m

Map

Weather


0- 5 10 15 20 25 30 35+ Temperature / ° C

Clouds and Precipitation
Forecast for 2017-12-17 06:00 UTC. Updated 40 minutes ago

Ground ~20,000 ft ~40,000 ft Winds

METAR

Not found

TAF

TAF AMD CYZG 161808Z 1618/1622 27012G22KT 2SM -SHSN BLSN OVC012 TEMPO 1618/1622 6SM -SN RMK NXT FCST WILL BE ISSUED AT 171445Z
Warning: Do not use this data for real-world aviation or navigation. No guarantee of current accuracy is given.